Aeroporto :
LOGIN :

Iscrizione | Disclaimer

   EN    FR    IT 

 










Sommario :    VFR   VFR Marginale   IFR   IFR Intensivo   IFR Molto Intensivo
Visibilità : 
Base nubi : 
>= 8 km
>= 3000ft
5 / 8 km
1000 / 3000 ft
1500m / 5 km
500 / 1000 ft
800 / 1500m
200 / 500 ft
< 800m
< 200 ft
Simboli :   Temporali  Nebbia  Neve Forte  Precipitazioni Forti  Vento > 20 kt
SIGMETs :   Varie  Temporali  Ghiacco  Turbolenza  Onda orograficha  Ceneri Vulcaniche






- Altitudine del aeroporto : 856 ft
- Codice IATA : VGO


LEVX - Vigo Peinador

ULTIMO METAR :
  • 310030Z 30003KT 260V350 0650 R19/1700D R01/1800U FG VV001 15/15 Q1012 NOSIG

METARs OBSOLETI :
  • 310000Z VRB02KT 0400 R19/1000U R01/1600U FG VV001 15/15 Q1012 NOSIG
  • 302330Z 27006KT 0500 R19/1900N R01/1900D FG VV001 15/15 Q1012 TEMPO 0800 BCFG
  • 302300Z 26005KT 210V300 4000 BR VV001 16/15 Q1012 TEMPO 0800 BCFG
  • 302230Z 04003KT 010V070 3500 0600N R01/P2000 R19/0600D BCFG VV001 16/15 Q1012 TEMPO 0800 BCFG
  • 302200Z VRB02KT 4000 1100S BR BKN001 16/16 Q1012 TEMPO 0800 BCFG

TAF TAF LEVX
Valido dal 31 a 00 ore il 01 a 00 ore UTC


302300Z 3100/3124 27008KT 9999 FEW010 TX29/3114Z TN16/3106Z
TEMPO 3100/3109 3000 BCFG BKN010
PROB40
TEMPO 3100/3106 0800 BCFG VV001
PROB40
TEMPO 3112/3124 3000 TS SHRA SCT020TCU SCT030CB



MetMap, La meteo Aeronautica in un colpo d'occhio ! - Copyright ORBIFLY Dicembre 2007 - Disclaimer

ORBIFLY MET'MAP TEAM :

Programmazione e sviluppo : Alexandra Zaïnal
Concezione : Baudouin d'Aumeries
Aiuto per la programmazione : Marc-Olivier Méhu
Supporto tecnico e logistico : Manuel Goepfert
Aiuto per la traduzione : Arnaldo La Scala

Contatto : metmap@orbifly.com




FONTI E CREDITI :

   NOAA